Time;durP1;ratioP1;P1;durP2;ratioP2;P2;SDS_P1;SDS_P2;PMS_P1;PMS_P2;Temp;Humidity;BMP_temperature;BMP_pressure;BME280_temperature;BME280_humidity;BME280_pressure;Samples;Min_cycle;Max_cycle;Signal;HPM_P1;HPM_P2
2022/07/15 09:47:32;;;;;;;4.25;0.90;;;;;;;;;;6240624;23;20020;-58
2022/07/15 09:50:00;;;;;;;1.33;0.57;;;;;;;;;;6236896;23;20027;-58
2022/07/15 09:52:45;;;;;;;2.75;0.88;;;;;;;;;;6238061;23;20081;-58
2022/07/15 09:55:13;;;;;;;1.20;0.77;;;;;;;;;;6240365;23;20024;-58
2022/07/15 09:57:40;;;;;;;4.13;1.00;;;;;;;;;;6239471;23;20024;-58
2022/07/15 10:00:07;;;;;;;2.35;1.05;;;;;;;;;;6240683;23;20032;-58
2022/07/15 10:02:35;;;;;;;;;;;;;;;;;;6214200;23;20032;-57
2022/07/15 10:05:02;;;;;;;1.55;0.90;;;;;;;;;;6239991;23;19927;-49
2022/07/15 10:07:29;;;;;;;;;;;;;;;;;;6238179;23;20498;-48
2022/07/15 10:09:58;;;;;;;3.15;0.82;;;;;;;;;;6239365;23;19920;-48
2022/07/15 10:12:41;;;;;;;2.15;0.85;;;;;;;;;;6215000;23;20048;-50
2022/07/15 10:15:09;;;;;;;2.13;0.93;;;;;;;;;;6240058;23;20242;-48
2022/07/15 10:17:56;;;;;;;4.60;0.90;;;;;;;;;;6240435;23;20070;-48
2022/07/15 10:20:37;;;;;;;4.38;1.13;;;;;;;;;;6239872;23;20369;-64
2022/07/15 10:23:04;;;;;;;1.98;0.82;;;;;;;;;;6241152;23;20078;-64
2022/07/15 10:25:45;;;;;;;3.15;0.63;;;;;;;;;;6239431;23;20024;-64
2022/07/15 10:28:32;;;;;;;3.25;0.77;;;;;;;;;;6239885;23;20024;-64
2022/07/15 10:31:15;;;;;;;2.20;1.00;;;;;;;;;;6238010;23;20093;-64
2022/07/15 10:33:43;;;;;;;1.30;0.70;;;;;;;;;;6239421;23;20024;-64
2022/07/15 10:36:10;;;;;;;1.75;0.82;;;;;;;;;;6237439;23;20067;-64
2022/07/15 10:38:38;;;;;;;2.40;0.70;;;;;;;;;;6238604;23;20028;-64
2022/07/15 10:41:12;;;;;;;2.88;0.70;;;;;;;;;;6238613;23;20016;-49
2022/07/15 10:43:49;;;;;;;1.88;0.77;;;;;;;;;;6238538;23;20510;-59
2022/07/15 11:25:40;;;;;;;1.38;0.68;;;;;;;;;;5038348;28;20437;-48
2022/07/15 11:28:09;;;;;;;2.45;0.90;;;;;;;;;;5033141;28;20058;-46
2022/07/15 11:30:38;;;;;;;3.63;0.88;;;;;;;;;;5033741;28;20107;-56
2022/07/15 11:33:07;;;;;;;1.30;0.60;;;;;;;;;;5034352;28;20453;-52
2022/07/15 11:35:49;;;;;;;2.47;0.60;;;;;;;;;;5034781;28;20045;-52
2022/07/15 11:38:17;;;;;;;4.03;0.80;;;;;;;;;;5030446;28;20496;-52
2022/07/15 11:46:18;;;;;;;1.77;0.70;;;;;;;;;;5032911;28;20095;-51
2022/07/15 11:48:47;;;;;;;0.80;0.52;;;;;;;;;;5029992;28;20050;-52
2022/07/15 11:51:14;;;;;;;0.90;0.65;;;;;;;;;;5030535;28;20045;-57
2022/07/15 11:53:49;;;;;;;3.47;0.77;;;;;;;;;;5034652;28;20079;-55
2022/07/15 11:56:16;;;;;;;1.25;0.50;;;;;;;;;;5028315;28;20504;-57
2022/07/15 11:58:45;;;;;;;1.52;0.65;;;;;;;;;;5032269;28;20056;-56
2022/07/15 12:01:15;;;;;;;5.03;0.70;;;;;;;;;;5029197;28;20057;-56
2022/07/15 12:03:51;;;;;;;2.78;0.90;;;;;;;;;;5027721;28;20046;-57
2022/07/15 12:06:19;;;;;;;0.82;0.57;;;;;;;;;;5026902;28;20045;-57
2022/07/15 12:08:49;;;;;;;1.25;0.70;;;;;;;;;;5031680;28;20500;-60
2022/07/15 12:11:18;;;;;;;2.80;0.70;;;;;;;;;;5034213;28;20255;-55
2022/07/15 12:13:53;;;;;;;2.90;0.65;;;;;;;;;;5028343;28;20054;-57
2022/07/15 12:16:22;;;;;;;5.10;1.02;;;;;;;;;;5030237;28;20099;-58
2022/07/15 12:18:52;;;;;;;2.10;0.90;;;;;;;;;;5029542;28;20053;-58
2022/07/15 12:21:19;;;;;;;2.78;0.90;;;;;;;;;;5031832;28;20068;-58
2022/07/15 12:23:59;;;;;;;2.78;0.85;;;;;;;;;;5022846;28;20878;-54
2022/07/15 12:26:26;;;;;;;3.10;0.65;;;;;;;;;;5027706;28;20111;-57
2022/07/15 12:28:57;;;;;;;1.95;0.70;;;;;;;;;;5034592;28;20069;-57
2022/07/15 12:31:25;;;;;;;1.80;0.90;;;;;;;;;;5031183;28;20053;-54
2022/07/15 12:33:54;;;;;;;2.28;0.70;;;;;;;;;;5028723;28;20471;-56
2022/07/15 12:36:21;;;;;;;;;;;;;;;;;;5019292;28;20074;-58
2022/07/15 12:39:04;;;;;;;3.10;1.05;;;;;;;;;;5015149;28;19925;-57
2022/07/15 12:41:32;;;;;;;2.30;1.23;;;;;;;;;;5013115;28;20076;-57
2022/07/15 12:44:01;;;;;;;1.95;0.82;;;;;;;;;;5016102;28;20112;-55
2022/07/15 12:46:44;;;;;;;1.65;0.98;;;;;;;;;;5013367;28;20115;-60
2022/07/15 12:49:11;;;;;;;4.63;0.90;;;;;;;;;;5016208;28;20049;-60
2022/07/15 12:51:39;;;;;;;0.95;0.65;;;;;;;;;;5012764;28;20084;-60
2022/07/15 12:54:06;;;;;;;3.67;1.33;;;;;;;;;;5016288;28;20085;-59
2022/07/15 12:56:52;;;;;;;2.35;0.90;;;;;;;;;;5011638;28;20045;-59
2022/07/15 12:59:20;;;;;;;2.33;0.93;;;;;;;;;;5012826;28;20077;-59
2022/07/15 13:01:48;;;;;;;;;;;;;;;;;;5019374;28;20135;-59
2022/07/15 13:04:15;;;;;;;4.50;1.00;;;;;;;;;;5020105;28;19983;-59
2022/07/15 13:06:42;;;;;;;5.47;0.90;;;;;;;;;;5016115;28;20077;-55
2022/07/15 13:09:09;;;;;;;2.83;1.00;;;;;;;;;;5020539;28;20073;-58
2022/07/15 13:11:36;;;;;;;2.03;0.85;;;;;;;;;;5019012;28;20134;-59
2022/07/15 13:14:04;;;;;;;3.67;1.02;;;;;;;;;;5018986;28;20555;-59
2022/07/15 13:16:31;;;;;;;;;;;;;;;;;;5023767;28;20049;-59
2022/07/15 13:18:58;;;;;;;3.70;0.95;;;;;;;;;;5020406;28;19975;-59
2022/07/15 13:21:25;;;;;;;3.72;1.13;;;;;;;;;;5015146;28;20052;-60
2022/07/15 13:23:53;;;;;;;1.60;0.82;;;;;;;;;;5020774;28;20077;-60
2022/07/15 13:26:20;;;;;;;3.50;1.08;;;;;;;;;;5015747;28;20428;-55
2022/07/15 13:28:48;;;;;;;2.97;1.13;;;;;;;;;;5019733;28;20078;-51
2022/07/15 13:31:15;;;;;;;;;;;;;;;;;;5019507;28;20508;-50
2022/07/15 13:33:42;;;;;;;5.32;1.20;;;;;;;;;;5018924;28;19929;-53
2022/07/15 13:36:22;;;;;;;1.88;0.93;;;;;;;;;;5020998;28;20050;-51
2022/07/15 13:38:50;;;;;;;2.67;1.10;;;;;;;;;;5020618;28;20089;-50
2022/07/15 13:41:17;;;;;;;2.45;0.82;;;;;;;;;;5021503;28;20452;-50
2022/07/15 13:43:44;;;;;;;4.15;1.13;;;;;;;;;;5021122;28;20081;-55
2022/07/15 13:46:11;;;;;;;2.17;0.90;;;;;;;;;;5018072;28;20076;-59
2022/07/15 13:48:39;;;;;;;3.80;1.02;;;;;;;;;;5017082;28;20053;-57
2022/07/15 13:51:24;;;;;;;5.60;1.30;;;;;;;;;;5012438;28;20068;-57
2022/07/15 13:53:53;;;;;;;5.40;1.20;;;;;;;;;;5020531;28;20057;-56
2022/07/15 13:56:22;;;;;;;2.53;1.00;;;;;;;;;;5017620;28;20056;-55
2022/07/15 13:58:49;;;;;;;3.10;1.05;;;;;;;;;;5016301;28;20120;-56
2022/07/15 14:01:17;;;;;;;2.05;1.17;;;;;;;;;;5021769;28;20850;-54
2022/07/15 14:03:44;;;;;;;9.25;1.25;;;;;;;;;;5020421;28;20148;-46
2022/07/15 14:06:12;;;;;;;;;;;;;;;;;;5022864;28;20068;-59
2022/07/15 14:08:40;;;;;;;4.22;1.08;;;;;;;;;;5021889;28;20464;-58
2022/07/15 14:11:07;;;;;;;2.92;0.88;;;;;;;;;;5019236;28;20145;-57
2022/07/15 14:13:34;;;;;;;2.13;0.85;;;;;;;;;;5015061;28;20493;-58
2022/07/15 14:16:01;;;;;;;2.97;1.00;;;;;;;;;;5024916;28;20045;-58
2022/07/15 14:18:46;;;;;;;4.03;1.20;;;;;;;;;;5013943;28;20115;-56
2022/07/15 14:21:14;;;;;;;3.92;1.10;;;;;;;;;;5011112;28;20061;-58
2022/07/15 14:23:42;;;;;;;6.95;1.42;;;;;;;;;;5015958;28;20139;-58
2022/07/15 14:26:10;;;;;;;4.13;1.25;;;;;;;;;;5017295;28;20054;-58
2022/07/15 14:28:38;;;;;;;3.55;1.10;;;;;;;;;;5018808;28;20056;-57
2022/07/15 14:31:07;;;;;;;6.45;1.10;;;;;;;;;;5016930;28;20452;-57
2022/07/15 14:33:34;;;;;;;;;;;;;;;;;;5015501;28;20107;-57
2022/07/15 14:36:02;;;;;;;4.93;1.30;;;;;;;;;;5013346;28;20015;-56
2022/07/15 14:38:31;;;;;;;3.75;1.55;;;;;;;;;;5018958;28;20053;-57
2022/07/15 14:40:58;;;;;;;4.07;1.20;;;;;;;;;;5017350;28;20088;-59
2022/07/15 14:43:26;;;;;;;;;;;;;;;;;;5016068;28;20417;-59
2022/07/15 14:45:53;;;;;;;4.65;1.30;;;;;;;;;;5022478;28;19979;-59
2022/07/15 14:48:21;;;;;;;4.20;1.15;;;;;;;;;;5015778;28;20559;-59
2022/07/15 14:50:48;;;;;;;;;;;;;;;;;;5015245;28;20049;-60
2022/07/15 14:53:16;;;;;;;5.03;1.50;;;;;;;;;;5011738;28;20015;-59
2022/07/15 14:55:43;;;;;;;2.67;1.00;;;;;;;;;;5013239;28;20513;-59
2022/07/15 14:58:12;;;;;;;3.45;0.98;;;;;;;;;;5011856;28;20049;-59
2022/07/15 15:00:40;;;;;;;3.85;1.27;;;;;;;;;;5011897;28;20505;-49
2022/07/15 15:03:08;;;;;;;6.80;1.02;;;;;;;;;;5014889;28;20116;-48
2022/07/15 15:05:35;;;;;;;6.55;1.30;;;;;;;;;;5015354;28;20662;-57
2022/07/15 15:08:03;;;;;;;4.47;1.10;;;;;;;;;;5016025;28;20046;-57
2022/07/15 15:10:30;;;;;;;;;;;;;;;;;;5015654;28;20081;-57
2022/07/15 15:12:57;;;;;;;5.78;1.13;;;;;;;;;;5014236;28;19967;-56
2022/07/15 15:15:25;;;;;;;6.93;1.50;;;;;;;;;;5013482;28;20050;-57
2022/07/15 15:17:53;;;;;;;2.65;1.00;;;;;;;;;;5017829;28;20057;-56
2022/07/15 15:20:20;;;;;;;;;;;;;;;;;;5013615;28;20041;-55
2022/07/15 15:22:47;;;;;;;5.60;1.60;;;;;;;;;;5017376;28;19922;-56
2022/07/15 15:25:14;;;;;;;4.57;1.10;;;;;;;;;;5017709;28;20103;-56
2022/07/15 15:27:42;;;;;;;3.15;1.20;;;;;;;;;;5013103;28;20100;-58
2022/07/15 15:30:10;;;;;;;10.93;1.88;;;;;;;;;;5016756;28;20098;-55
2022/07/15 15:32:37;;;;;;;7.95;1.45;;;;;;;;;;5016230;28;20050;-58
2022/07/15 15:35:04;;;;;;;;;;;;;;;;;;5012462;28;20133;-55
2022/07/15 15:37:32;;;;;;;9.98;1.20;;;;;;;;;;5011416;28;20160;-55
2022/07/15 15:39:59;;;;;;;3.90;1.00;;;;;;;;;;5014038;28;20125;-55
2022/07/15 15:42:26;;;;;;;;;;;;;;;;;;5017858;28;20155;-52
2022/07/15 15:44:53;;;;;;;4.75;1.42;;;;;;;;;;5016801;28;19929;-53
2022/07/15 15:47:21;;;;;;;7.88;1.42;;;;;;;;;;5018224;28;20343;-50
2022/07/15 15:49:48;;;;;;;8.48;1.63;;;;;;;;;;5016691;28;20466;-51
2022/07/15 15:52:16;;;;;;;5.22;1.30;;;;;;;;;;5015135;28;20512;-50
2022/07/15 15:54:43;;;;;;;6.05;1.13;;;;;;;;;;5017279;28;20049;-50
2022/07/15 15:57:10;;;;;;;;;;;;;;;;;;5014742;28;20112;-55
2022/07/15 15:59:38;;;;;;;3.38;1.20;;;;;;;;;;5014139;28;19929;-51
2022/07/15 16:02:05;;;;;;;6.00;1.40;;;;;;;;;;5012193;28;20050;-60
2022/07/15 16:04:32;;;;;;;;;;;;;;;;;;5014981;28;20046;-59
2022/07/15 16:07:07;;;;;;;7.72;1.10;;;;;;;;;;5017409;28;20931;-59
2022/07/15 16:09:35;;;;;;;;;;;;;;;;;;5017164;28;20096;-59
2022/07/15 16:12:02;;;;;;;2.78;1.00;;;;;;;;;;5019093;28;19992;-59
2022/07/15 16:14:30;;;;;;;1.95;1.00;;;;;;;;;;5016105;28;20645;-59
2022/07/15 16:16:58;;;;;;;4.68;1.27;;;;;;;;;;5018082;28;20045;-52
2022/07/15 16:19:25;;;;;;;4.22;1.38;;;;;;;;;;5020108;28;20156;-55
2022/07/15 16:24:39;;;;;;;5.03;1.10;;;;;;;;;;5019025;28;20085;-58
2022/07/15 16:27:06;;;;;;;4.53;1.25;;;;;;;;;;5026171;28;20100;-58
2022/07/15 16:29:33;;;;;;;;;;;;;;;;;;5015876;28;20077;-55
2022/07/15 16:32:01;;;;;;;3.95;1.17;;;;;;;;;;5013348;28;19929;-56
2022/07/15 16:34:28;;;;;;;8.60;1.58;;;;;;;;;;5015653;28;20503;-56
2022/07/15 16:36:55;;;;;;;4.25;1.35;;;;;;;;;;5015813;28;20088;-56
2022/07/15 16:39:22;;;;;;;6.47;1.50;;;;;;;;;;5013822;28;20092;-55
2022/07/15 16:41:50;;;;;;;8.15;1.67;;;;;;;;;;5020211;28;20191;-58
2022/07/15 16:44:17;;;;;;;5.55;1.50;;;;;;;;;;5020063;28;20642;-56
2022/07/15 16:46:44;;;;;;;5.43;1.40;;;;;;;;;;5018525;28;20045;-55
2022/07/15 16:49:12;;;;;;;5.18;1.38;;;;;;;;;;5020492;28;20046;-58
2022/07/15 16:51:39;;;;;;;8.27;1.40;;;;;;;;;;5014618;28;20089;-57
2022/07/15 16:54:06;;;;;;;;;;;;;;;;;;5015292;28;20468;-58
2022/07/15 16:56:34;;;;;;;5.93;1.55;;;;;;;;;;5015387;28;20086;-55
2022/07/15 16:59:01;;;;;;;6.93;1.52;;;;;;;;;;5015739;28;20544;-55
2022/07/15 17:01:28;;;;;;;8.48;1.60;;;;;;;;;;5015990;28;20068;-54
2022/07/15 17:03:56;;;;;;;5.50;1.35;;;;;;;;;;5017594;28;20493;-55
2022/07/15 17:06:24;;;;;;;5.45;1.42;;;;;;;;;;5014493;28;20144;-56
2022/07/15 17:08:51;;;;;;;3.72;1.50;;;;;;;;;;5014496;28;20095;-55
2022/07/15 17:11:18;;;;;;;8.68;1.42;;;;;;;;;;5015367;28;20103;-55
2022/07/15 17:13:45;;;;;;;9.43;1.83;;;;;;;;;;5017144;28;20077;-59
2022/07/15 17:16:13;;;;;;;6.35;1.75;;;;;;;;;;5015989;28;20057;-56
2022/07/15 17:18:41;;;;;;;6.93;1.60;;;;;;;;;;5015166;28;20068;-46
2022/07/15 17:21:08;;;;;;;;;;;;;;;;;;5016330;28;20052;-47
2022/07/15 17:23:35;;;;;;;10.07;1.85;;;;;;;;;;5017859;28;19972;-50
2022/07/15 17:26:02;;;;;;;6.40;2.08;;;;;;;;;;5011611;28;20089;-48
2022/07/15 17:28:29;;;;;;;8.68;1.98;;;;;;;;;;5011850;28;20140;-48
2022/07/15 17:30:57;;;;;;;5.85;1.90;;;;;;;;;;5012268;28;20581;-47
2022/07/15 17:33:24;;;;;;;11.20;2.35;;;;;;;;;;5010124;28;20042;-59
2022/07/15 17:35:52;;;;;;;9.68;1.90;;;;;;;;;;5014040;28;20500;-59
2022/07/15 17:38:20;;;;;;;7.18;1.60;;;;;;;;;;5010754;28;20402;-59
2022/07/15 17:40:47;;;;;;;8.02;2.10;;;;;;;;;;5013003;28;20077;-59
2022/07/15 17:43:15;;;;;;;6.68;1.90;;;;;;;;;;5011864;28;20081;-59
2022/07/15 17:45:42;;;;;;;;;;;;;;;;;;5009131;28;20097;-59
2022/07/15 17:48:09;;;;;;;12.45;1.80;;;;;;;;;;5008865;28;19921;-59
2022/07/15 17:50:36;;;;;;;7.53;1.63;;;;;;;;;;5009443;28;20050;-59
2022/07/15 17:53:04;;;;;;;;;;;;;;;;;;5009665;28;20539;-62
2022/07/15 17:55:31;;;;;;;6.85;1.77;;;;;;;;;;5007015;28;19991;-58
2022/07/15 17:57:58;;;;;;;5.60;1.60;;;;;;;;;;5011139;28;20092;-56
2022/07/15 18:00:26;;;;;;;;;;;;;;;;;;5011791;28;20209;-57
2022/07/15 18:02:53;;;;;;;7.78;2.05;;;;;;;;;;5016842;28;19960;-55
2022/07/15 18:05:20;;;;;;;9.50;2.00;;;;;;;;;;5009605;28;20169;-55
2022/07/15 18:07:47;;;;;;;12.27;2.10;;;;;;;;;;5012265;28;20099;-57
2022/07/15 18:10:15;;;;;;;10.32;2.75;;;;;;;;;;5012970;28;20074;-58
2022/07/15 18:12:42;;;;;;;9.70;2.72;;;;;;;;;;5011161;28;20748;-57
2022/07/15 18:15:10;;;;;;;11.43;2.72;;;;;;;;;;5014830;28;20038;-56
2022/07/15 18:17:37;;;;;;;10.05;2.55;;;;;;;;;;5014769;28;20085;-57
2022/07/15 18:20:04;;;;;;;8.68;3.15;;;;;;;;;;5012431;28;20068;-56
2022/07/15 18:22:32;;;;;;;11.68;2.80;;;;;;;;;;5013180;28;20054;-57
2022/07/15 18:24:59;;;;;;;11.75;2.15;;;;;;;;;;5010540;28;20468;-57
2022/07/15 18:27:26;;;;;;;16.25;2.97;;;;;;;;;;5011503;28;20365;-56
2022/07/15 18:29:54;;;;;;;;;;;;;;;;;;5016463;28;20045;-59
2022/07/15 18:32:21;;;;;;;10.85;2.25;;;;;;;;;;5010946;28;19929;-57
2022/07/15 18:34:49;;;;;;;11.50;2.15;;;;;;;;;;5012162;28;20058;-57
2022/07/15 18:37:16;;;;;;;7.38;1.85;;;;;;;;;;5008246;28;20077;-58
2022/07/15 18:39:43;;;;;;;10.20;2.50;;;;;;;;;;5014598;28;20038;-55
2022/07/15 18:42:11;;;;;;;14.10;2.67;;;;;;;;;;5010282;28;20049;-56
2022/07/15 18:44:38;;;;;;;9.20;2.40;;;;;;;;;;5016413;28;20045;-56
2022/07/15 18:47:06;;;;;;;13.07;2.78;;;;;;;;;;5009502;28;20074;-57
2022/07/15 18:49:33;;;;;;;9.82;2.72;;;;;;;;;;5018281;28;20080;-60
2022/07/15 18:52:03;;;;;;;;;;;;;;;;;;5012798;28;20132;-56
2022/07/15 18:54:31;;;;;;;8.95;2.25;;;;;;;;;;5009892;28;20486;-51
2022/07/15 18:56:58;;;;;;;13.75;2.40;;;;;;;;;;5010677;28;20081;-50
2022/07/15 18:59:25;;;;;;;15.40;2.78;;;;;;;;;;5009338;28;20148;-50
2022/07/15 19:01:53;;;;;;;19.90;3.15;;;;;;;;;;5013742;28;20505;-50
2022/07/15 19:04:20;;;;;;;14.75;2.80;;;;;;;;;;5013165;28;20085;-54
2022/07/15 19:06:48;;;;;;;13.35;2.60;;;;;;;;;;5010686;28;20053;-52
2022/07/15 19:09:15;;;;;;;14.95;2.72;;;;;;;;;;5012733;28;20052;-54
2022/07/15 19:11:42;;;;;;;17.77;3.50;;;;;;;;;;5011446;28;20064;-59
2022/07/15 19:14:10;;;;;;;14.55;2.58;;;;;;;;;;5009887;28;20195;-59
2022/07/15 19:16:37;;;;;;;;;;;;;;;;;;5013233;28;20073;-57
2022/07/15 19:19:06;;;;;;;16.10;2.80;;;;;;;;;;5011841;28;19987;-59
2022/07/15 19:21:34;;;;;;;22.15;3.10;;;;;;;;;;5012585;28;20050;-59
2022/07/15 19:24:02;;;;;;;15.52;2.88;;;;;;;;;;5011731;28;20459;-57
2022/07/15 20:38:00;;;;;;;19.02;3.60;;;;;;;;;;4994405;28;20436;-52
2022/07/15 20:40:28;;;;;;;24.25;3.45;;;;;;;;;;4983565;28;20050;-52
2022/07/15 20:42:56;;;;;;;21.27;3.42;;;;;;;;;;4978365;28;20074;-50
2022/07/15 20:45:23;;;;;;;30.08;4.10;;;;;;;;;;4993883;28;20051;-61
2022/07/15 20:47:50;;;;;;;;;;;;;;;;;;4982901;28;20061;-56
2022/07/15 20:50:17;;;;;;;20.58;3.80;;;;;;;;;;4980067;28;19922;-55
2022/07/15 20:52:45;;;;;;;20.85;3.50;;;;;;;;;;4974312;28;20051;-58
2022/07/15 20:55:12;;;;;;;17.15;3.50;;;;;;;;;;4976293;28;20137;-58
2022/07/15 20:57:40;;;;;;;22.67;4.45;;;;;;;;;;4960406;28;20137;-57
2022/07/15 21:00:07;;;;;;;;;;;;;;;;;;4961052;28;20051;-54
2022/07/15 21:02:36;;;;;;;20.70;3.05;;;;;;;;;;4959776;28;19957;-52
2022/07/15 21:05:04;;;;;;;19.60;3.92;;;;;;;;;;4956571;28;20046;-58
2022/07/15 21:07:32;;;;;;;28.10;4.22;;;;;;;;;;4961888;28;20083;-51
2022/07/15 21:09:59;;;;;;;29.48;4.30;;;;;;;;;;4959741;28;20811;-53
2022/07/15 21:12:27;;;;;;;19.23;3.42;;;;;;;;;;4959647;28;20078;-52
2022/07/15 21:14:54;;;;;;;20.98;4.18;;;;;;;;;;4958264;28;20082;-51
2022/07/15 21:17:21;;;;;;;19.10;3.72;;;;;;;;;;4954888;28;20051;-54
2022/07/15 21:19:49;;;;;;;32.17;5.18;;;;;;;;;;4961449;28;20067;-54
2022/07/15 21:22:16;;;;;;;27.38;3.85;;;;;;;;;;4956891;28;20082;-59
2022/07/15 21:27:34;;;;;;;16.70;3.22;;;;;;;;;;4958253;28;20047;-55
2022/07/15 21:30:02;;;;;;;18.25;4.15;;;;;;;;;;4961655;28;20105;-54
2022/07/15 21:32:29;;;;;;;20.85;3.60;;;;;;;;;;4955026;28;20048;-57
2022/07/15 21:34:57;;;;;;;22.38;4.07;;;;;;;;;;4959404;28;20065;-57
2022/07/15 21:37:24;;;;;;;16.65;3.33;;;;;;;;;;4951393;28;20103;-57
2022/07/15 21:39:51;;;;;;;29.58;4.35;;;;;;;;;;4945955;28;20047;-59
2022/07/15 21:42:26;;;;;;;21.92;4.28;;;;;;;;;;4947047;28;20063;-58
2022/07/15 21:44:54;;;;;;;20.75;3.20;;;;;;;;;;4947269;28;20444;-61
2022/07/15 21:47:21;;;;;;;21.55;3.47;;;;;;;;;;4946962;28;20795;-59
2022/07/15 21:49:48;;;;;;;19.98;3.35;;;;;;;;;;4944363;28;20086;-58
2022/07/15 21:52:16;;;;;;;;;;;;;;;;;;4949282;28;20114;-59
2022/07/15 21:54:43;;;;;;;23.60;3.40;;;;;;;;;;4949917;28;19926;-58
2022/07/15 21:57:12;;;;;;;26.10;4.28;;;;;;;;;;4947908;28;20576;-59
2022/07/15 21:59:40;;;;;;;19.25;3.60;;;;;;;;;;4942326;28;20082;-57
2022/07/15 22:02:09;;;;;;;21.17;3.95;;;;;;;;;;4947641;28;20086;-50
2022/07/15 22:04:37;;;;;;;22.35;4.38;;;;;;;;;;4951292;28;20527;-49
2022/07/15 22:07:05;;;;;;;14.55;3.33;;;;;;;;;;4949636;28;20142;-53
2022/07/15 22:09:32;;;;;;;18.05;3.67;;;;;;;;;;4950625;28;20086;-52
2022/07/15 22:11:59;;;;;;;;;;;;;;;;;;4950473;28;20465;-53
2022/07/15 22:14:27;;;;;;;27.48;4.15;;;;;;;;;;4949044;28;19926;-52
2022/07/15 22:16:54;;;;;;;22.42;4.22;;;;;;;;;;4945414;28;20084;-55
2022/07/15 22:19:21;;;;;;;25.35;3.45;;;;;;;;;;4946072;28;20098;-55
2022/07/15 22:21:49;;;;;;;16.80;3.30;;;;;;;;;;4950578;28;20079;-49
2022/07/15 22:24:16;;;;;;;16.58;3.70;;;;;;;;;;4949167;28;20167;-54
2022/07/15 22:26:43;;;;;;;13.48;3.38;;;;;;;;;;4947882;28;20051;-49
2022/07/15 22:29:11;;;;;;;19.20;3.63;;;;;;;;;;4947472;28;20118;-53
2022/07/15 22:31:38;;;;;;;16.27;3.35;;;;;;;;;;4949528;28;20094;-48
2022/07/15 22:34:05;;;;;;;;;;;;;;;;;;4947385;28;20147;-53
2022/07/15 22:36:33;;;;;;;17.60;2.67;;;;;;;;;;4946116;28;20651;-52
2022/07/15 22:39:00;;;;;;;17.55;3.35;;;;;;;;;;4946411;28;20099;-57
2022/07/15 22:41:27;;;;;;;17.85;3.05;;;;;;;;;;4949318;28;20051;-58
2022/07/15 22:43:55;;;;;;;15.57;3.13;;;;;;;;;;4945466;28;20129;-57
2022/07/15 22:46:22;;;;;;;19.08;3.50;;;;;;;;;;4947371;28;20592;-57
2022/07/15 22:48:52;;;;;;;16.30;3.13;;;;;;;;;;4946752;28;21888;-61
2022/07/15 22:51:19;;;;;;;18.98;3.47;;;;;;;;;;4946569;28;20050;-59
2022/07/15 22:53:47;;;;;;;26.05;4.57;;;;;;;;;;4940091;28;20082;-59
2022/07/15 22:56:14;;;;;;;19.15;3.50;;;;;;;;;;4949976;28;20122;-58
2022/07/15 22:58:41;;;;;;;13.75;2.83;;;;;;;;;;4946274;28;20134;-55
2022/07/15 23:01:09;;;;;;;23.15;3.63;;;;;;;;;;4946308;28;20049;-54
2022/07/15 23:03:36;;;;;;;22.17;3.50;;;;;;;;;;4945282;28;20103;-51
2022/07/15 23:06:03;;;;;;;;;;;;;;;;;;4950490;28;20050;-54
2022/07/15 23:08:31;;;;;;;20.20;3.30;;;;;;;;;;4946292;28;19969;-56
2022/07/15 23:10:58;;;;;;;23.02;3.90;;;;;;;;;;4948325;28;20105;-55
2022/07/15 23:13:25;;;;;;;29.17;4.32;;;;;;;;;;4945549;28;20106;-55
2022/07/15 23:15:53;;;;;;;19.58;4.05;;;;;;;;;;4942615;28;20508;-58
2022/07/15 23:18:20;;;;;;;13.55;3.20;;;;;;;;;;4945217;28;20077;-55
2022/07/15 23:20:47;;;;;;;20.60;3.40;;;;;;;;;;4947253;28;20039;-54
2022/07/15 23:23:15;;;;;;;21.52;3.13;;;;;;;;;;4949831;28;20117;-53
2022/07/15 23:25:42;;;;;;;23.50;3.42;;;;;;;;;;4945868;28;20078;-54
2022/07/15 23:28:09;;;;;;;20.92;2.83;;;;;;;;;;4947896;28;20130;-56
2022/07/15 23:30:37;;;;;;;19.25;3.65;;;;;;;;;;4946056;28;20408;-56
2022/07/15 23:33:04;;;;;;;28.10;4.60;;;;;;;;;;4943992;28;20700;-50
2022/07/15 23:35:31;;;;;;;19.23;3.88;;;;;;;;;;4943195;28;20773;-58
2022/07/15 23:37:59;;;;;;;16.17;2.78;;;;;;;;;;4946477;28;20117;-61
2022/07/15 23:40:26;;;;;;;;;;;;;;;;;;4945352;28;20043;-61
2022/07/15 23:42:54;;;;;;;17.70;3.20;;;;;;;;;;4950036;28;19922;-62
2022/07/15 23:45:21;;;;;;;21.27;3.13;;;;;;;;;;4944850;28;20133;-61
2022/07/15 23:47:49;;;;;;;20.42;3.00;;;;;;;;;;4952450;28;20082;-62
2022/07/15 23:50:16;;;;;;;20.92;3.47;;;;;;;;;;4950958;28;20077;-61
2022/07/15 23:52:44;;;;;;;16.10;3.45;;;;;;;;;;4951656;28;20102;-62
2022/07/15 23:55:11;;;;;;;20.42;3.00;;;;;;;;;;4947890;28;20180;-52
2022/07/15 23:57:38;;;;;;;15.63;3.50;;;;;;;;;;4951651;28;20083;-58
